createdAt,value
2023-04-18T00:01:09.898Z,47.71
2023-04-18T00:03:38.410Z,47.75
2023-04-18T00:06:07.040Z,48.25
2023-04-18T00:08:35.576Z,48.60
2023-04-18T00:11:02.995Z,48.16
2023-04-18T00:13:30.128Z,48.45
2023-04-18T00:15:57.618Z,48.69
2023-04-18T00:18:26.846Z,49.20
2023-04-18T00:20:54.680Z,49.08
2023-04-18T00:23:22.521Z,48.76
2023-04-18T00:25:50.406Z,49.17
2023-04-18T00:28:17.577Z,49.19
2023-04-18T00:30:45.778Z,49.86
2023-04-18T00:33:13.012Z,49.98
2023-04-18T00:35:40.088Z,50.34
2023-04-18T00:38:08.459Z,51.05
2023-04-18T00:40:36.375Z,50.71
2023-04-18T00:43:03.707Z,49.92
2023-04-18T00:45:30.935Z,49.60
2023-04-18T00:47:58.272Z,50.26
2023-04-18T00:50:25.620Z,50.39
2023-04-18T00:52:54.177Z,50.49
2023-04-18T00:55:22.276Z,50.52
2023-04-18T00:57:49.982Z,51.11
2023-04-18T01:00:17.406Z,50.80
2023-04-18T01:02:44.646Z,50.95
2023-04-18T01:05:12.092Z,51.05
2023-04-18T01:07:42.441Z,51.64
2023-04-18T01:10:11.012Z,52.09
2023-04-18T01:12:38.265Z,52.67
2023-04-18T01:15:06.316Z,53.18
2023-04-18T01:17:35.661Z,53.35
2023-04-18T01:20:06.544Z,53.53
2023-04-18T01:22:34.101Z,53.59
2023-04-18T01:25:07.243Z,54.52
2023-04-18T01:27:34.523Z,54.31
2023-04-18T01:30:01.745Z,54.01
2023-04-18T01:32:33.190Z,54.04
2023-04-18T01:35:00.436Z,54.00
2023-04-18T01:37:27.517Z,54.60
2023-04-18T01:39:55.017Z,54.93
2023-04-18T01:42:22.134Z,54.31
2023-04-18T01:44:49.368Z,54.42
2023-04-18T01:47:16.602Z,53.89
2023-04-18T01:49:48.179Z,53.76
2023-04-18T01:52:16.185Z,54.00
2023-04-18T01:54:43.519Z,53.99
2023-04-18T01:57:10.810Z,54.77
2023-04-18T01:59:38.484Z,55.66
2023-04-18T02:02:06.058Z,55.69
2023-04-18T02:04:33.410Z,55.68
2023-04-18T02:07:00.977Z,55.90
2023-04-18T02:09:28.382Z,56.60
2023-04-18T02:11:59.326Z,56.59
2023-04-18T02:14:28.160Z,57.40
2023-04-18T02:16:55.790Z,57.71
2023-04-18T02:19:24.640Z,58.36
2023-04-18T02:21:52.181Z,59.14
2023-04-18T02:24:19.511Z,59.02
2023-04-18T02:26:47.544Z,59.65
2023-04-18T02:29:14.678Z,59.42
2023-04-18T02:31:42.294Z,59.48
2023-04-18T02:34:09.472Z,59.42
2023-04-18T02:36:36.632Z,59.50
2023-04-18T02:39:03.980Z,59.53
2023-04-18T02:41:31.332Z,60.15
2023-04-18T02:43:59.210Z,61.25
2023-04-18T02:46:26.529Z,60.87
2023-04-18T02:48:53.687Z,61.02
2023-04-18T02:51:24.377Z,60.90
2023-04-18T02:53:55.024Z,61.33
2023-04-18T02:56:23.012Z,60.99
2023-04-18T02:59:22.792Z,61.09
2023-04-18T03:02:12.757Z,60.40
2023-04-18T03:04:48.129Z,60.19
2023-04-18T03:07:15.789Z,59.71
2023-04-18T03:09:42.929Z,60.24
2023-04-18T03:12:18.467Z,60.32
2023-04-18T03:14:46.539Z,60.20
2023-04-18T03:17:14.768Z,59.07
2023-04-18T03:19:47.626Z,58.31
2023-04-18T03:22:16.693Z,58.44
2023-04-18T03:24:57.509Z,58.10
2023-04-18T03:27:39.488Z,57.22
2023-04-18T03:30:08.282Z,56.83
2023-04-18T03:32:36.581Z,56.39
2023-04-18T03:35:04.259Z,56.51
2023-04-18T03:37:32.140Z,55.69
2023-04-18T03:40:00.311Z,55.57
2023-04-18T03:42:30.980Z,55.53
2023-04-18T03:44:58.795Z,55.97
2023-04-18T03:47:26.162Z,56.36
2023-04-18T03:49:57.018Z,56.97
2023-04-18T03:52:27.492Z,56.55
2023-04-18T03:54:55.848Z,56.68
2023-04-18T03:57:26.468Z,57.04
2023-04-18T03:59:54.212Z,56.80
2023-04-18T04:02:22.180Z,56.87
2023-04-18T04:04:50.980Z,56.69
2023-04-18T04:07:19.343Z,56.98
2023-04-18T04:09:47.495Z,56.59
2023-04-18T04:12:15.996Z,56.46
2023-04-18T04:14:43.762Z,55.85
2023-04-18T04:17:11.275Z,55.95
2023-04-18T04:19:39.493Z,56.48
2023-04-18T04:22:13.163Z,56.46
2023-04-18T04:24:42.210Z,57.13
2023-04-18T04:27:10.614Z,57.71
2023-04-18T04:29:39.342Z,57.25
2023-04-18T04:32:08.271Z,57.04
2023-04-18T04:34:41.626Z,56.26
2023-04-18T04:37:14.129Z,56.50
2023-04-18T04:39:53.684Z,56.92
2023-04-18T04:42:31.412Z,57.23
2023-04-18T04:45:09.610Z,58.20
2023-04-18T04:47:37.125Z,58.62
2023-04-18T04:50:06.323Z,59.05
2023-04-18T04:52:33.886Z,59.12
2023-04-18T04:55:02.758Z,58.85
2023-04-18T04:57:32.073Z,58.96
2023-04-18T04:59:59.336Z,58.54
2023-04-18T05:02:30.251Z,58.49
2023-04-18T05:04:58.424Z,58.32
2023-04-18T05:07:26.001Z,58.10
2023-04-18T05:09:53.626Z,57.15
2023-04-18T05:12:20.736Z,56.55
2023-04-18T05:14:47.840Z,56.12
2023-04-18T05:17:14.884Z,56.27
2023-04-18T05:19:44.272Z,56.27
2023-04-18T05:22:11.600Z,56.43
2023-04-18T05:24:38.800Z,55.82
2023-04-18T05:27:07.220Z,55.08
2023-04-18T05:29:34.412Z,55.63
2023-04-18T05:32:02.226Z,56.02
2023-04-18T05:34:29.351Z,55.01
2023-04-18T05:36:56.941Z,55.07
2023-04-18T05:39:24.373Z,54.96
2023-04-18T05:41:51.415Z,54.77
2023-04-18T05:44:18.923Z,55.63
2023-04-18T05:46:46.685Z,55.16
2023-04-18T05:49:14.105Z,54.68
2023-04-18T05:51:41.181Z,54.37
2023-04-18T05:54:08.352Z,54.14
2023-04-18T05:56:35.800Z,54.54
2023-04-18T05:59:02.916Z,54.42
2023-04-18T06:01:30.083Z,54.62
2023-04-18T06:03:57.564Z,53.74
2023-04-18T06:06:24.912Z,53.99
2023-04-18T06:08:52.157Z,53.42
2023-04-18T06:11:21.352Z,53.61
2023-04-18T06:13:48.564Z,53.10
2023-04-18T06:16:16.238Z,52.80
2023-04-18T06:18:43.367Z,52.38
2023-04-18T06:21:10.576Z,52.65
2023-04-18T06:23:38.777Z,52.00
2023-04-18T06:26:07.419Z,52.23
2023-04-18T06:28:34.485Z,51.97
2023-04-18T06:31:01.812Z,51.84
2023-04-18T06:33:29.204Z,52.56
2023-04-18T06:35:56.391Z,52.38
2023-04-18T06:38:23.600Z,52.19
2023-04-18T06:40:50.754Z,52.41
2023-04-18T06:43:17.953Z,52.72
2023-04-18T06:45:46.048Z,52.53
2023-04-18T06:48:13.456Z,52.81
2023-04-18T06:50:40.984Z,52.62
2023-04-18T06:53:08.025Z,52.32
2023-04-18T06:55:36.136Z,52.63
2023-04-18T06:58:03.352Z,52.54
2023-04-18T07:00:30.998Z,52.79
2023-04-18T07:02:58.163Z,52.42
2023-04-18T07:05:25.397Z,52.38
2023-04-18T07:07:52.495Z,53.07
2023-04-18T07:10:19.753Z,52.90
2023-04-18T07:12:47.679Z,52.74
2023-04-18T07:15:15.021Z,52.80
2023-04-18T07:17:42.321Z,52.42
2023-04-18T07:20:12.353Z,52.65
2023-04-18T07:22:41.842Z,52.31
2023-04-18T07:25:09.486Z,52.15
2023-04-18T07:27:37.202Z,52.11
2023-04-18T07:30:05.043Z,52.49
2023-04-18T07:32:35.005Z,52.83
2023-04-18T07:35:03.503Z,52.62
2023-04-18T07:37:32.084Z,52.47
2023-04-18T07:39:59.457Z,51.98
2023-04-18T07:42:27.033Z,52.07
2023-04-18T07:45:00.840Z,51.81
2023-04-18T07:47:30.373Z,51.63
2023-04-18T07:49:58.479Z,51.88
2023-04-18T07:52:25.998Z,51.55
2023-04-18T07:54:53.441Z,51.65
2023-04-18T07:57:21.119Z,51.06
2023-04-18T07:59:48.365Z,50.57
2023-04-18T08:02:16.567Z,50.71
2023-04-18T08:04:44.045Z,50.25
2023-04-18T08:07:11.302Z,49.95
2023-04-18T08:09:38.460Z,49.92
2023-04-18T08:12:05.864Z,49.71
2023-04-18T08:14:33.021Z,49.46
2023-04-18T08:17:00.380Z,49.40
2023-04-18T08:19:27.690Z,49.45
2023-04-18T08:21:54.789Z,49.63
2023-04-18T08:24:22.218Z,49.22
2023-04-18T08:26:49.563Z,49.04
2023-04-18T08:29:17.013Z,48.50
2023-04-18T08:31:44.175Z,48.60
2023-04-18T08:34:11.433Z,48.61
2023-04-18T08:36:39.548Z,48.42
2023-04-18T08:39:08.003Z,48.28
2023-04-18T08:41:37.950Z,48.02
2023-04-18T08:44:06.655Z,48.17
2023-04-18T08:46:37.472Z,48.29
2023-04-18T08:49:06.300Z,48.00
2023-04-18T08:51:34.151Z,48.12
2023-04-18T08:54:04.467Z,47.78
2023-04-18T08:56:32.127Z,47.64
2023-04-18T08:59:00.514Z,47.48
2023-04-18T09:01:52.303Z,47.13
2023-04-18T09:04:39.148Z,47.27
2023-04-18T09:07:12.087Z,47.24
2023-04-18T09:09:50.133Z,47.27
2023-04-18T09:12:22.867Z,47.72
2023-04-18T09:14:52.402Z,48.14
2023-04-18T09:17:34.893Z,47.58
2023-04-18T09:20:05.549Z,47.77
2023-04-18T09:22:50.751Z,47.85
2023-04-18T09:25:29.589Z,47.52
2023-04-18T09:28:02.088Z,47.08
2023-04-18T09:30:39.440Z,47.09
2023-04-18T09:33:10.161Z,47.17
2023-04-18T09:35:38.499Z,46.90
2023-04-18T09:38:07.629Z,46.92
2023-04-18T09:40:35.054Z,47.18
2023-04-18T09:43:18.883Z,47.31
2023-04-18T09:45:48.845Z,46.65
2023-04-18T09:48:16.293Z,46.70
2023-04-18T09:50:46.456Z,46.09
2023-04-18T09:53:20.669Z,46.33
2023-04-18T09:55:57.686Z,46.34
2023-04-18T09:58:29.092Z,46.50
2023-04-18T10:00:57.094Z,46.63
2023-04-18T10:03:32.881Z,46.88
2023-04-18T10:06:00.559Z,46.57
2023-04-18T10:08:27.716Z,46.17
2023-04-18T10:10:56.695Z,46.47
2023-04-18T10:13:24.858Z,46.33
2023-04-18T10:15:52.696Z,46.39
2023-04-18T10:18:23.949Z,46.64
2023-04-18T10:20:51.859Z,46.69
2023-04-18T10:23:31.494Z,46.51
2023-04-18T10:25:59.389Z,46.35
2023-04-18T10:28:28.181Z,46.37
2023-04-18T10:31:03.673Z,46.29
2023-04-18T10:33:41.995Z,46.34
2023-04-18T10:36:09.692Z,45.98
2023-04-18T10:38:45.349Z,45.59
2023-04-18T10:41:23.546Z,45.68
2023-04-18T10:44:09.772Z,45.70
2023-04-18T10:46:38.962Z,45.90
2023-04-18T10:49:23.259Z,46.19
2023-04-18T10:51:53.980Z,46.06
2023-04-18T10:54:32.987Z,46.32
2023-04-18T10:57:03.158Z,46.47
2023-04-18T10:59:32.521Z,45.87
2023-04-18T11:02:33.396Z,45.75
2023-04-18T11:05:04.815Z,46.19
2023-04-18T11:07:39.730Z,45.49
2023-04-18T11:10:10.306Z,45.31
2023-04-18T11:12:40.490Z,45.09
2023-04-18T11:15:13.287Z,45.10
2023-04-18T11:17:40.603Z,45.44
2023-04-18T11:20:15.289Z,45.46
2023-04-18T11:22:47.121Z,46.01
2023-04-18T11:25:16.547Z,45.91
2023-04-18T11:27:45.321Z,46.07
2023-04-18T11:30:14.237Z,46.10
2023-04-18T11:32:41.656Z,45.92
2023-04-18T11:35:10.710Z,45.92
2023-04-18T11:37:39.589Z,45.97
2023-04-18T11:40:09.917Z,45.80
2023-04-18T11:42:39.530Z,45.59
2023-04-18T11:45:14.439Z,45.16
2023-04-18T11:47:43.369Z,45.05
2023-04-18T11:50:12.226Z,45.00
2023-04-18T11:52:42.857Z,45.44
2023-04-18T11:55:28.922Z,45.06
2023-04-18T11:57:58.011Z,45.26
2023-04-18T12:00:35.464Z,45.10
2023-04-18T12:03:08.959Z,45.14
2023-04-18T12:05:38.737Z,44.76
2023-04-18T12:08:12.361Z,44.94
2023-04-18T12:10:47.585Z,44.73
2023-04-18T12:13:15.290Z,45.00
2023-04-18T12:15:44.713Z,45.06
2023-04-18T12:18:14.206Z,45.01
2023-04-18T12:20:50.483Z,44.94
2023-04-18T12:23:40.462Z,44.70
2023-04-18T12:26:18.472Z,44.27
2023-04-18T12:28:46.623Z,44.47
2023-04-18T12:31:13.742Z,44.49
2023-04-18T12:33:40.919Z,44.34
2023-04-18T12:36:11.280Z,44.42
2023-04-18T12:38:38.574Z,43.89
2023-04-18T12:41:05.947Z,43.79
2023-04-18T12:43:34.098Z,44.02
2023-04-18T12:46:01.426Z,43.92
2023-04-18T12:48:28.980Z,43.68
2023-04-18T12:50:56.616Z,43.62
2023-04-18T12:53:23.663Z,43.49
2023-04-18T12:55:51.075Z,43.27
2023-04-18T12:58:18.901Z,43.24
2023-04-18T13:00:46.495Z,43.13
2023-04-18T13:03:13.880Z,43.36
2023-04-18T13:05:41.516Z,43.52
2023-04-18T13:08:17.101Z,43.55
2023-04-18T13:10:48.813Z,43.64
2023-04-18T13:13:16.409Z,43.62
2023-04-18T13:15:43.566Z,43.39
2023-04-18T13:18:11.043Z,43.38
2023-04-18T13:20:38.882Z,43.33
2023-04-18T13:23:06.262Z,43.53
2023-04-18T13:25:33.453Z,43.42
2023-04-18T13:28:01.251Z,43.32
2023-04-18T13:30:29.205Z,43.52
2023-04-18T13:32:56.921Z,43.66
2023-04-18T13:35:24.798Z,43.56
2023-04-18T13:37:52.144Z,43.48
2023-04-18T13:40:19.521Z,43.56
2023-04-18T13:42:46.700Z,43.56
2023-04-18T13:45:13.778Z,43.67
2023-04-18T13:47:41.024Z,43.76
2023-04-18T13:50:09.038Z,43.66
2023-04-18T13:52:36.556Z,43.71
2023-04-18T13:55:04.146Z,43.79
2023-04-18T13:57:33.695Z,43.54
2023-04-18T14:00:01.359Z,43.13
2023-04-18T14:02:40.801Z,43.29
2023-04-18T14:05:09.148Z,43.52
2023-04-18T14:07:38.441Z,43.51
2023-04-18T14:10:06.923Z,43.25
2023-04-18T14:12:34.687Z,43.19
2023-04-18T14:15:01.961Z,43.29
2023-04-18T14:17:32.588Z,43.25
2023-04-18T14:20:00.479Z,43.19
2023-04-18T14:22:27.548Z,43.42
2023-04-18T14:24:56.240Z,43.43
2023-04-18T14:27:25.742Z,43.70
2023-04-18T14:29:52.926Z,43.74
2023-04-18T14:32:20.461Z,43.41
2023-04-18T14:34:47.606Z,43.63
2023-04-18T14:37:16.399Z,43.58
2023-04-18T14:39:44.814Z,43.39
2023-04-18T14:42:11.878Z,43.59
2023-04-18T14:44:39.359Z,43.78
2023-04-18T14:47:06.925Z,43.94
2023-04-18T14:49:35.709Z,44.17
2023-04-18T14:52:04.007Z,44.23
2023-04-18T14:54:32.766Z,44.31
2023-04-18T14:57:00.041Z,44.52
2023-04-18T14:59:28.870Z,44.27
2023-04-18T15:01:56.384Z,44.74
2023-04-18T15:04:23.969Z,44.51
2023-04-18T15:06:51.572Z,44.48
2023-04-18T15:09:18.754Z,44.17
2023-04-18T15:11:46.014Z,44.14
2023-04-18T15:14:13.355Z,44.22
2023-04-18T15:16:40.982Z,44.22
2023-04-18T15:19:08.224Z,43.94
2023-04-18T15:21:35.485Z,44.22
2023-04-18T15:24:02.817Z,44.16
2023-04-18T15:26:32.313Z,44.03
2023-04-18T15:29:03.311Z,44.59
2023-04-18T15:31:31.089Z,44.42
2023-04-18T15:33:58.805Z,44.42
2023-04-18T15:36:28.193Z,44.16
2023-04-18T15:38:55.580Z,44.12
2023-04-18T15:41:25.761Z,43.92
2023-04-18T15:43:53.420Z,44.04
2023-04-18T15:46:20.535Z,43.92
2023-04-18T15:48:47.850Z,43.79
2023-04-18T15:51:15.315Z,43.87
2023-04-18T15:53:42.432Z,43.72
2023-04-18T15:56:10.641Z,43.48
2023-04-18T15:58:38.414Z,43.54
2023-04-18T16:01:05.958Z,43.28
2023-04-18T16:03:33.700Z,43.34
2023-04-18T16:06:01.547Z,43.46
2023-04-18T16:08:30.312Z,43.05
2023-04-18T16:10:58.647Z,43.28
2023-04-18T16:13:25.857Z,42.63
2023-04-18T16:15:52.942Z,42.19
2023-04-18T16:18:20.765Z,42.04
2023-04-18T16:20:47.974Z,42.37
2023-04-18T16:23:15.344Z,42.03
2023-04-18T16:25:42.444Z,42.10
2023-04-18T16:28:09.694Z,42.19
2023-04-18T16:30:37.607Z,42.25
2023-04-18T16:33:04.804Z,41.66
2023-04-18T16:35:31.939Z,41.84
2023-04-18T16:37:59.093Z,41.42
2023-04-18T16:40:30.434Z,41.54
2023-04-18T16:42:58.253Z,41.60
2023-04-18T16:45:25.728Z,42.06
2023-04-18T16:47:53.107Z,41.66
2023-04-18T16:50:21.568Z,41.85
2023-04-18T16:52:51.796Z,41.96
2023-04-18T16:55:20.049Z,41.92
2023-04-18T16:57:48.198Z,42.03
2023-04-18T17:00:15.575Z,41.30
2023-04-18T17:02:45.457Z,41.89
2023-04-18T17:05:12.859Z,42.07
2023-04-18T17:07:40.238Z,41.82
2023-04-18T17:10:09.883Z,41.81
2023-04-18T17:12:37.759Z,42.01
2023-04-18T17:15:05.346Z,42.06
2023-04-18T17:17:32.965Z,42.26
2023-04-18T17:20:01.638Z,42.44
2023-04-18T17:22:30.604Z,42.71
2023-04-18T17:24:57.613Z,42.37
2023-04-18T17:27:24.774Z,42.59
2023-04-18T17:29:52.032Z,42.71
2023-04-18T17:32:23.428Z,42.40
2023-04-18T17:34:50.778Z,42.54
2023-04-18T17:37:19.793Z,42.55
2023-04-18T17:39:46.977Z,42.89
2023-04-18T17:42:14.173Z,42.78
2023-04-18T17:44:41.839Z,42.97
2023-04-18T17:47:09.338Z,42.97
2023-04-18T17:49:36.675Z,42.96
2023-04-18T17:52:04.623Z,43.04
2023-04-18T17:54:33.005Z,43.65
2023-04-18T17:57:00.198Z,43.20
2023-04-18T17:59:27.829Z,43.39
2023-04-18T18:01:55.000Z,43.41
2023-04-18T18:04:24.874Z,43.49
2023-04-18T18:06:57.447Z,43.63
2023-04-18T18:09:24.929Z,43.82
2023-04-18T18:11:54.694Z,43.62
2023-04-18T18:14:23.495Z,43.65
2023-04-18T18:16:50.874Z,43.83
2023-04-18T18:19:18.262Z,43.91
2023-04-18T18:21:45.451Z,43.71
2023-04-18T18:24:13.209Z,44.12
2023-04-18T18:26:40.313Z,43.81
2023-04-18T18:29:13.369Z,44.46
2023-04-18T18:31:41.657Z,44.61
2023-04-18T18:34:09.011Z,44.63
2023-04-18T18:36:36.267Z,44.76
2023-04-18T18:39:04.234Z,44.92
2023-04-18T18:41:31.481Z,45.30
2023-04-18T18:43:58.729Z,45.13
2023-04-18T18:46:27.318Z,45.40
2023-04-18T18:48:54.838Z,45.70
2023-04-18T18:51:23.854Z,46.05
2023-04-18T18:53:51.102Z,46.37
2023-04-18T18:56:18.303Z,46.89
2023-04-18T18:58:45.645Z,46.71
2023-04-18T19:01:12.904Z,46.71
2023-04-18T19:03:40.728Z,47.01
2023-04-18T19:06:08.863Z,47.64
2023-04-18T19:08:36.148Z,47.71
2023-04-18T19:11:03.883Z,48.20
2023-04-18T19:13:31.023Z,48.28
2023-04-18T19:15:58.534Z,48.36
2023-04-18T19:18:25.928Z,48.36
2023-04-18T19:20:53.123Z,48.53
2023-04-18T19:23:20.399Z,48.72
2023-04-18T19:25:47.511Z,48.27
2023-04-18T19:28:14.834Z,48.32
2023-04-18T19:30:42.540Z,48.59
2023-04-18T19:33:10.118Z,48.82
2023-04-18T19:35:38.094Z,48.49
2023-04-18T19:38:05.347Z,49.13
2023-04-18T19:40:32.460Z,48.87
2023-04-18T19:42:59.813Z,48.65
2023-04-18T19:45:27.163Z,48.93
2023-04-18T19:47:54.378Z,48.72
2023-04-18T19:50:21.503Z,48.89
2023-04-18T19:52:48.652Z,48.28
2023-04-18T19:55:15.833Z,48.23
2023-04-18T19:57:43.438Z,48.33
2023-04-18T20:00:12.989Z,48.44
2023-04-18T20:02:41.894Z,48.41
2023-04-18T20:05:10.087Z,48.34
2023-04-18T20:07:37.421Z,48.11
2023-04-18T20:10:05.259Z,48.30
2023-04-18T20:12:32.760Z,48.07
2023-04-18T20:14:59.868Z,48.31
2023-04-18T20:17:30.623Z,47.92
2023-04-18T20:19:59.655Z,47.77
2023-04-18T20:22:27.349Z,47.95
2023-04-18T20:24:57.299Z,47.63
2023-04-18T20:27:24.697Z,47.53
2023-04-18T20:29:51.907Z,47.49
2023-04-18T20:32:19.177Z,47.20
2023-04-18T20:34:46.759Z,47.26
2023-04-18T20:37:18.779Z,47.17
2023-04-18T20:39:46.432Z,47.34
2023-04-18T20:42:14.733Z,47.62
2023-04-18T20:44:46.970Z,47.38
2023-04-18T20:47:15.775Z,47.24
2023-04-18T20:49:43.456Z,47.30
2023-04-18T20:52:10.605Z,47.43
2023-04-18T20:54:37.899Z,47.26
2023-04-18T20:57:05.192Z,47.19
2023-04-18T20:59:32.333Z,46.93
2023-04-18T21:01:59.867Z,47.09
2023-04-18T21:04:27.583Z,47.63
2023-04-18T21:06:54.979Z,47.94
2023-04-18T21:09:22.052Z,48.06
2023-04-18T21:11:49.192Z,47.89
2023-04-18T21:14:17.344Z,47.92
2023-04-18T21:16:44.725Z,48.08
2023-04-18T21:19:12.187Z,48.31
2023-04-18T21:21:39.366Z,48.79
2023-04-18T21:24:06.925Z,48.86
2023-04-18T21:26:34.138Z,48.52
2023-04-18T21:29:04.497Z,48.67
2023-04-18T21:31:34.125Z,48.97
2023-04-18T21:34:04.317Z,48.95
2023-04-18T21:36:32.324Z,49.54
2023-04-18T21:39:01.080Z,49.91
2023-04-18T21:41:29.034Z,50.16
2023-04-18T21:43:56.147Z,50.43
2023-04-18T21:46:23.485Z,50.76
2023-04-18T21:48:50.722Z,50.56
2023-04-18T21:51:17.944Z,50.86
2023-04-18T21:53:45.106Z,50.32
2023-04-18T21:56:12.341Z,50.16
2023-04-18T21:58:39.383Z,50.25
2023-04-18T22:01:06.681Z,50.02
2023-04-18T22:03:34.572Z,49.84
2023-04-18T22:06:02.142Z,49.96
2023-04-18T22:08:29.613Z,50.26
2023-04-18T22:10:59.103Z,50.73
2023-04-18T22:13:33.212Z,50.66
2023-04-18T22:16:04.916Z,50.81
2023-04-18T22:18:37.571Z,50.80
2023-04-18T22:21:05.274Z,51.17
2023-04-18T22:23:32.465Z,51.82
2023-04-18T22:25:59.717Z,52.20
2023-04-18T22:28:28.186Z,52.24
2023-04-18T22:30:55.462Z,52.11
2023-04-18T22:33:22.630Z,52.12
2023-04-18T22:35:49.998Z,52.66
2023-04-18T22:38:17.471Z,53.13
2023-04-18T22:40:44.751Z,53.50
2023-04-18T22:43:11.831Z,54.03
2023-04-18T22:45:38.990Z,53.84
2023-04-18T22:48:11.351Z,53.57
2023-04-18T22:50:42.713Z,53.91
2023-04-18T22:53:14.542Z,54.21
2023-04-18T22:55:42.811Z,53.92
2023-04-18T22:58:10.839Z,54.21
2023-04-18T23:00:38.802Z,53.86
2023-04-18T23:03:06.111Z,53.93
2023-04-18T23:05:34.387Z,54.78
2023-04-18T23:08:01.596Z,55.85
2023-04-18T23:10:29.006Z,56.38
2023-04-18T23:12:56.607Z,57.06
2023-04-18T23:15:26.370Z,56.65
2023-04-18T23:17:54.193Z,57.17
2023-04-18T23:20:22.164Z,57.44
2023-04-18T23:22:51.682Z,57.33
2023-04-18T23:25:22.458Z,57.29
2023-04-18T23:27:49.695Z,57.79
2023-04-18T23:30:17.315Z,57.67
2023-04-18T23:32:44.530Z,57.90
2023-04-18T23:35:11.911Z,58.32
2023-04-18T23:37:39.211Z,58.82
2023-04-18T23:40:08.117Z,58.53
2023-04-18T23:42:36.011Z,58.10
2023-04-18T23:45:04.336Z,58.13
2023-04-18T23:47:35.086Z,58.01
2023-04-18T23:50:02.671Z,58.17
2023-04-18T23:52:32.615Z,58.19
2023-04-18T23:55:01.009Z,58.22
2023-04-18T23:57:32.236Z,58.16
2023-04-18T23:59:59.525Z,57.88
